sensor_id;sensor_type;location;lat;lon;timestamp;pressure;altitude;pressure_sealevel;temperature;humidity
2397;BME280;1209;48.410;9.054;2024-03-06T00:01:28;96229.06;;;6.39;100.00
2397;BME280;1209;48.410;9.054;2024-03-06T00:03:53;96240.09;;;6.41;100.00
2397;BME280;1209;48.410;9.054;2024-03-06T00:06:18;96239.72;;;6.36;100.00
2397;BME280;1209;48.410;9.054;2024-03-06T00:08:43;96236.53;;;6.42;100.00
2397;BME280;1209;48.410;9.054;2024-03-06T00:11:09;96235.78;;;6.49;100.00
2397;BME280;1209;48.410;9.054;2024-03-06T00:13:34;96236.38;;;6.43;100.00
2397;BME280;1209;48.410;9.054;2024-03-06T00:15:59;96226.78;;;6.18;100.00
2397;BME280;1209;48.410;9.054;2024-03-06T00:18:24;96240.69;;;6.35;100.00
2397;BME280;1209;48.410;9.054;2024-03-06T00:20:50;96236.84;;;6.21;100.00
2397;BME280;1209;48.410;9.054;2024-03-06T00:23:15;96228.63;;;6.25;100.00
2397;BME280;1209;48.410;9.054;2024-03-06T00:25:40;96220.47;;;6.20;100.00
2397;BME280;1209;48.410;9.054;2024-03-06T00:28:06;96223.44;;;5.80;100.00
2397;BME280;1209;48.410;9.054;2024-03-06T00:30:31;96218.75;;;6.11;100.00
2397;BME280;1209;48.410;9.054;2024-03-06T00:32:56;96220.47;;;6.20;100.00
2397;BME280;1209;48.410;9.054;2024-03-06T00:35:21;96224.81;;;6.02;100.00
2397;BME280;1209;48.410;9.054;2024-03-06T00:37:47;96218.75;;;5.93;100.00
2397;BME280;1209;48.410;9.054;2024-03-06T00:40:12;96228.84;;;5.87;100.00
2397;BME280;1209;48.410;9.054;2024-03-06T00:42:38;96235.50;;;5.99;100.00
2397;BME280;1209;48.410;9.054;2024-03-06T00:45:05;96231.00;;;6.19;100.00
2397;BME280;1209;48.410;9.054;2024-03-06T00:47:31;96234.13;;;6.22;100.00
2397;BME280;1209;48.410;9.054;2024-03-06T00:49:56;96230.84;;;6.20;100.00
2397;BME280;1209;48.410;9.054;2024-03-06T00:52:22;96225.59;;;6.30;100.00
2397;BME280;1209;48.410;9.054;2024-03-06T00:54:47;96232.69;;;6.28;100.00
2397;BME280;1209;48.410;9.054;2024-03-06T00:57:13;96228.69;;;6.34;100.00
2397;BME280;1209;48.410;9.054;2024-03-06T00:59:38;96232.69;;;6.28;100.00
2397;BME280;1209;48.410;9.054;2024-03-06T01:02:03;96239.28;;;6.22;100.00
2397;BME280;1209;48.410;9.054;2024-03-06T01:04:28;96239.00;;;6.25;100.00
2397;BME280;1209;48.410;9.054;2024-03-06T01:06:54;96237.16;;;6.18;100.00
2397;BME280;1209;48.410;9.054;2024-03-06T01:09:19;96239.91;;;6.16;100.00
2397;BME280;1209;48.410;9.054;2024-03-06T01:11:45;96238.53;;;6.12;100.00
2397;BME280;1209;48.410;9.054;2024-03-06T01:14:12;96233.56;;;6.01;100.00
2397;BME280;1209;48.410;9.054;2024-03-06T01:16:37;96231.84;;;5.92;100.00
2397;BME280;1209;48.410;9.054;2024-03-06T01:19:02;96226.56;;;5.84;100.00
2397;BME280;1209;48.410;9.054;2024-03-06T01:21:28;96233.50;;;5.93;100.00
2397;BME280;1209;48.410;9.054;2024-03-06T01:23:54;96235.41;;;5.91;100.00
2397;BME280;1209;48.410;9.054;2024-03-06T01:26:19;96231.44;;;5.87;100.00
2397;BME280;1209;48.410;9.054;2024-03-06T01:28:45;96236.09;;;5.93;100.00
2397;BME280;1209;48.410;9.054;2024-03-06T01:31:10;96240.84;;;5.88;100.00
2397;BME280;1209;48.410;9.054;2024-03-06T01:33:35;96245.66;;;5.83;100.00
2397;BME280;1209;48.410;9.054;2024-03-06T01:36:00;96248.91;;;5.85;100.00
2397;BME280;1209;48.410;9.054;2024-03-06T01:38:26;96249.88;;;5.84;100.00
2397;BME280;1209;48.410;9.054;2024-03-06T01:40:51;96247.34;;;5.74;100.00
2397;BME280;1209;48.410;9.054;2024-03-06T01:43:19;96246.81;;;5.71;100.00
2397;BME280;1209;48.410;9.054;2024-03-06T01:45:44;96256.09;;;5.73;100.00
2397;BME280;1209;48.410;9.054;2024-03-06T01:48:11;96255.00;;;5.66;100.00
2397;BME280;1209;48.410;9.054;2024-03-06T01:50:36;96252.31;;;5.58;100.00
2397;BME280;1209;48.410;9.054;2024-03-06T01:53:01;96249.97;;;5.64;100.00
2397;BME280;1209;48.410;9.054;2024-03-06T01:55:27;96245.09;;;5.61;100.00
2397;BME280;1209;48.410;9.054;2024-03-06T01:57:53;96251.06;;;5.72;100.00
2397;BME280;1209;48.410;9.054;2024-03-06T02:00:19;96256.22;;;5.72;100.00
2397;BME280;1209;48.410;9.054;2024-03-06T02:02:46;96247.78;;;5.69;100.00
2397;BME280;1209;48.410;9.054;2024-03-06T02:05:12;96248.97;;;5.75;100.00
2397;BME280;1209;48.410;9.054;2024-03-06T02:07:38;96245.28;;;5.78;100.00
2397;BME280;1209;48.410;9.054;2024-03-06T02:10:07;96251.50;;;5.85;100.00
2397;BME280;1209;48.410;9.054;2024-03-06T02:12:35;96257.03;;;5.72;100.00
2397;BME280;1209;48.410;9.054;2024-03-06T02:15:01;96253.22;;;5.66;100.00
2397;BME280;1209;48.410;9.054;2024-03-06T02:17:28;96253.50;;;5.73;100.00
2397;BME280;1209;48.410;9.054;2024-03-06T02:19:55;96251.56;;;5.75;100.00
2397;BME280;1209;48.410;9.054;2024-03-06T02:22:22;96244.31;;;5.79;100.00
2397;BME280;1209;48.410;9.054;2024-03-06T02:24:48;96258.16;;;5.69;100.00
2397;BME280;1209;48.410;9.054;2024-03-06T02:27:14;96252.38;;;5.76;100.00
2397;BME280;1209;48.410;9.054;2024-03-06T02:29:41;96246.84;;;5.88;100.00
2397;BME280;1209;48.410;9.054;2024-03-06T02:32:06;96245.72;;;6.00;100.00
2397;BME280;1209;48.410;9.054;2024-03-06T02:34:33;96251.72;;;6.01;100.00
2397;BME280;1209;48.410;9.054;2024-03-06T02:36:58;96247.78;;;5.97;100.00
2397;BME280;1209;48.410;9.054;2024-03-06T02:39:24;96252.00;;;5.98;100.00
2397;BME280;1209;48.410;9.054;2024-03-06T02:41:49;96256.97;;;5.91;100.00
2397;BME280;1209;48.410;9.054;2024-03-06T02:44:14;96251.38;;;5.86;100.00
2397;BME280;1209;48.410;9.054;2024-03-06T02:46:40;96250.53;;;5.68;100.00
2397;BME280;1209;48.410;9.054;2024-03-06T02:49:06;96240.53;;;5.46;100.00
2397;BME280;1209;48.410;9.054;2024-03-06T02:51:31;96242.44;;;5.44;100.00
2397;BME280;1209;48.410;9.054;2024-03-06T02:53:57;96243.84;;;5.38;100.00
2397;BME280;1209;48.410;9.054;2024-03-06T02:56:22;96251.59;;;5.38;100.00
2397;BME280;1209;48.410;9.054;2024-03-06T02:58:47;96237.38;;;5.52;100.00
2397;BME280;1209;48.410;9.054;2024-03-06T03:01:14;96239.38;;;5.58;100.00
2397;BME280;1209;48.410;9.054;2024-03-06T03:03:42;96239.94;;;5.52;100.00
2397;BME280;1209;48.410;9.054;2024-03-06T03:06:08;96239.38;;;5.30;100.00
2397;BME280;1209;48.410;9.054;2024-03-06T03:08:33;96233.53;;;5.56;100.00
2397;BME280;1209;48.410;9.054;2024-03-06T03:10:58;96251.59;;;5.65;100.00
2397;BME280;1209;48.410;9.054;2024-03-06T03:13:24;96244.41;;;5.59;100.00
2397;BME280;1209;48.410;9.054;2024-03-06T03:15:49;96252.00;;;5.71;100.00
2397;BME280;1209;48.410;9.054;2024-03-06T03:18:14;96257.63;;;5.93;100.00
2397;BME280;1209;48.410;9.054;2024-03-06T03:20:40;96255.13;;;5.74;100.00
2397;BME280;1209;48.410;9.054;2024-03-06T03:23:05;96258.63;;;5.83;100.00
2397;BME280;1209;48.410;9.054;2024-03-06T03:25:36;96259.28;;;5.85;100.00
2397;BME280;1209;48.410;9.054;2024-03-06T03:28:02;96260.50;;;5.90;100.00
2397;BME280;1209;48.410;9.054;2024-03-06T03:30:27;96264.72;;;5.91;100.00
2397;BME280;1209;48.410;9.054;2024-03-06T03:32:52;96264.31;;;5.86;100.00
2397;BME280;1209;48.410;9.054;2024-03-06T03:35:17;96257.34;;;5.96;100.00
2397;BME280;1209;48.410;9.054;2024-03-06T03:37:46;96262.00;;;5.93;100.00
2397;BME280;1209;48.410;9.054;2024-03-06T03:40:11;96260.78;;;5.87;100.00
2397;BME280;1209;48.410;9.054;2024-03-06T03:42:38;96269.09;;;5.91;100.00
2397;BME280;1209;48.410;9.054;2024-03-06T03:45:03;96267.69;;;5.96;100.00
2397;BME280;1209;48.410;9.054;2024-03-06T03:47:29;96260.63;;;5.89;100.00
2397;BME280;1209;48.410;9.054;2024-03-06T03:49:55;96263.38;;;5.87;100.00
2397;BME280;1209;48.410;9.054;2024-03-06T03:52:20;96275.78;;;5.93;100.00
2397;BME280;1209;48.410;9.054;2024-03-06T03:54:45;96267.69;;;5.96;100.00
2397;BME280;1209;48.410;9.054;2024-03-06T03:57:11;96268.59;;;6.05;100.00
2397;BME280;1209;48.410;9.054;2024-03-06T03:59:36;96273.13;;;6.03;100.00
2397;BME280;1209;48.410;9.054;2024-03-06T04:02:03;96272.81;;;6.06;100.00
2397;BME280;1209;48.410;9.054;2024-03-06T04:04:29;96278.75;;;5.98;100.00
2397;BME280;1209;48.410;9.054;2024-03-06T04:06:54;96280.00;;;5.94;100.00
2397;BME280;1209;48.410;9.054;2024-03-06T04:09:20;96279.50;;;6.09;100.00
2397;BME280;1209;48.410;9.054;2024-03-06T04:11:45;96274.81;;;6.12;100.00
2397;BME280;1209;48.410;9.054;2024-03-06T04:14:10;96281.38;;;6.16;100.00
2397;BME280;1209;48.410;9.054;2024-03-06T04:16:35;96281.78;;;6.12;100.00
2397;BME280;1209;48.410;9.054;2024-03-06T04:19:01;96287.41;;;6.07;100.00
2397;BME280;1209;48.410;9.054;2024-03-06T04:21:26;96289.69;;;5.92;100.00
2397;BME280;1209;48.410;9.054;2024-03-06T04:23:52;96290.25;;;5.86;100.00
2397;BME280;1209;48.410;9.054;2024-03-06T04:26:17;96292.22;;;5.75;100.00
2397;BME280;1209;48.410;9.054;2024-03-06T04:28:43;96296.31;;;5.67;100.00
2397;BME280;1209;48.410;9.054;2024-03-06T04:31:09;96298.22;;;5.65;100.00
2397;BME280;1209;48.410;9.054;2024-03-06T04:33:34;96296.16;;;5.79;100.00
2397;BME280;1209;48.410;9.054;2024-03-06T04:36:03;96295.72;;;5.83;100.00
2397;BME280;1209;48.410;9.054;2024-03-06T04:38:31;96303.16;;;5.59;100.00
2397;BME280;1209;48.410;9.054;2024-03-06T04:40:56;96298.00;;;5.59;100.00
2397;BME280;1209;48.410;9.054;2024-03-06T04:43:21;96311.38;;;5.54;100.00
2397;BME280;1209;48.410;9.054;2024-03-06T04:45:47;96307.09;;;5.63;100.00
2397;BME280;1209;48.410;9.054;2024-03-06T04:48:12;96316.63;;;5.72;100.00
2397;BME280;1209;48.410;9.054;2024-03-06T04:50:37;96311.84;;;5.77;100.00
2397;BME280;1209;48.410;9.054;2024-03-06T04:53:03;96313.25;;;5.99;100.00
2397;BME280;1209;48.410;9.054;2024-03-06T04:55:28;96315.31;;;5.95;100.00
2397;BME280;1209;48.410;9.054;2024-03-06T04:57:55;96313.69;;;5.94;100.00
2397;BME280;1209;48.410;9.054;2024-03-06T05:00:20;96314.34;;;5.96;100.00
2397;BME280;1209;48.410;9.054;2024-03-06T05:02:46;96324.28;;;6.01;100.00
2397;BME280;1209;48.410;9.054;2024-03-06T05:05:11;96330.13;;;6.03;100.00
2397;BME280;1209;48.410;9.054;2024-03-06T05:07:37;96331.78;;;6.04;100.00
2397;BME280;1209;48.410;9.054;2024-03-06T05:10:02;96328.94;;;5.97;100.00
2397;BME280;1209;48.410;9.054;2024-03-06T05:12:28;96324.88;;;5.95;100.00
2397;BME280;1209;48.410;9.054;2024-03-06T05:14:54;96337.69;;;5.96;100.00
2397;BME280;1209;48.410;9.054;2024-03-06T05:17:20;96330.00;;;6.05;100.00
2397;BME280;1209;48.410;9.054;2024-03-06T05:19:46;96326.28;;;6.07;100.00
2397;BME280;1209;48.410;9.054;2024-03-06T05:22:13;96333.91;;;6.09;100.00
2397;BME280;1209;48.410;9.054;2024-03-06T05:24:39;96335.69;;;6.08;100.00
2397;BME280;1209;48.410;9.054;2024-03-06T05:27:04;96335.69;;;6.08;100.00
2397;BME280;1209;48.410;9.054;2024-03-06T05:29:29;96342.84;;;5.96;100.00
2397;BME280;1209;48.410;9.054;2024-03-06T05:31:55;96347.31;;;6.04;100.00
2397;BME280;1209;48.410;9.054;2024-03-06T05:34:21;96344.88;;;6.03;100.00
2397;BME280;1209;48.410;9.054;2024-03-06T05:36:47;96343.28;;;5.92;100.00
2397;BME280;1209;48.410;9.054;2024-03-06T05:39:12;96350.25;;;5.91;100.00
2397;BME280;1209;48.410;9.054;2024-03-06T05:41:41;96357.75;;;5.94;100.00
2397;BME280;1209;48.410;9.054;2024-03-06T05:44:07;96353.50;;;5.93;100.00
2397;BME280;1209;48.410;9.054;2024-03-06T05:46:33;96361.69;;;5.89;100.00
2397;BME280;1209;48.410;9.054;2024-03-06T05:48:58;96367.56;;;5.91;100.00
2397;BME280;1209;48.410;9.054;2024-03-06T05:51:23;96365.81;;;5.91;100.00
2397;BME280;1209;48.410;9.054;2024-03-06T05:53:49;96372.19;;;5.97;100.00
2397;BME280;1209;48.410;9.054;2024-03-06T05:56:14;96372.75;;;5.91;100.00
2397;BME280;1209;48.410;9.054;2024-03-06T05:58:39;96372.75;;;5.91;100.00
2397;BME280;1209;48.410;9.054;2024-03-06T06:01:04;96376.94;;;6.02;100.00
2397;BME280;1209;48.410;9.054;2024-03-06T06:03:30;96385.16;;;5.97;100.00
2397;BME280;1209;48.410;9.054;2024-03-06T06:05:56;96385.38;;;6.04;100.00
2397;BME280;1209;48.410;9.054;2024-03-06T06:08:21;96386.34;;;6.03;100.00
2397;BME280;1209;48.410;9.054;2024-03-06T06:10:47;96394.31;;;5.91;100.00
2397;BME280;1209;48.410;9.054;2024-03-06T06:13:12;96388.56;;;5.88;100.00
2397;BME280;1209;48.410;9.054;2024-03-06T06:15:38;96390.66;;;5.65;100.00
2397;BME280;1209;48.410;9.054;2024-03-06T06:18:04;96390.28;;;5.69;100.00
2397;BME280;1209;48.410;9.054;2024-03-06T06:20:29;96397.88;;;5.81;100.00
2397;BME280;1209;48.410;9.054;2024-03-06T06:22:55;96397.63;;;5.74;100.00
2397;BME280;1209;48.410;9.054;2024-03-06T06:25:20;96400.47;;;5.81;100.00
2397;BME280;1209;48.410;9.054;2024-03-06T06:27:45;96401.16;;;5.73;100.00
2397;BME280;1209;48.410;9.054;2024-03-06T06:30:11;96398.56;;;5.73;100.00
2397;BME280;1209;48.410;9.054;2024-03-06T06:32:43;96409.09;;;5.72;100.00
2397;BME280;1209;48.410;9.054;2024-03-06T06:35:09;96411.13;;;5.68;100.00
2397;BME280;1209;48.410;9.054;2024-03-06T06:37:35;96406.34;;;5.73;100.00
2397;BME280;1209;48.410;9.054;2024-03-06T06:40:01;96409.19;;;5.80;100.00
2397;BME280;1209;48.410;9.054;2024-03-06T06:42:32;96410.25;;;5.87;100.00
2397;BME280;1209;48.410;9.054;2024-03-06T06:44:58;96414.84;;;6.03;100.00
2397;BME280;1209;48.410;9.054;2024-03-06T06:47:23;96415.53;;;6.05;100.00
2397;BME280;1209;48.410;9.054;2024-03-06T06:49:48;96409.25;;;6.07;100.00
2397;BME280;1209;48.410;9.054;2024-03-06T06:52:14;96408.66;;;6.13;100.00
2397;BME280;1209;48.410;9.054;2024-03-06T06:54:39;96409.25;;;6.07;100.00
2397;BME280;1209;48.410;9.054;2024-03-06T06:57:04;96409.66;;;6.03;100.00
2397;BME280;1209;48.410;9.054;2024-03-06T06:59:30;96400.94;;;6.04;100.00
2397;BME280;1209;48.410;9.054;2024-03-06T07:01:55;96405.75;;;5.89;100.00
2397;BME280;1209;48.410;9.054;2024-03-06T07:04:20;96412.97;;;5.95;100.00
2397;BME280;1209;48.410;9.054;2024-03-06T07:06:46;96410.00;;;5.90;100.00
2397;BME280;1209;48.410;9.054;2024-03-06T07:09:12;96410.63;;;6.02;100.00
2397;BME280;1209;48.410;9.054;2024-03-06T07:11:37;96408.72;;;6.04;100.00
2397;BME280;1209;48.410;9.054;2024-03-06T07:14:02;96409.72;;;5.93;100.00
2397;BME280;1209;48.410;9.054;2024-03-06T07:16:28;96414.22;;;5.91;100.00
2397;BME280;1209;48.410;9.054;2024-03-06T07:18:53;96414.38;;;5.89;100.00
2397;BME280;1209;48.410;9.054;2024-03-06T07:21:18;96411.63;;;5.91;100.00
2397;BME280;1209;48.410;9.054;2024-03-06T07:23:44;96424.72;;;5.89;100.00
2397;BME280;1209;48.410;9.054;2024-03-06T07:26:09;96426.84;;;6.04;100.00
2397;BME280;1209;48.410;9.054;2024-03-06T07:28:34;96421.16;;;6.00;100.00
2397;BME280;1209;48.410;9.054;2024-03-06T07:31:00;96423.44;;;6.03;100.00
2397;BME280;1209;48.410;9.054;2024-03-06T07:33:25;96426.03;;;6.03;100.00
2397;BME280;1209;48.410;9.054;2024-03-06T07:35:50;96432.28;;;6.10;100.00
2397;BME280;1209;48.410;9.054;2024-03-06T07:38:15;96430.56;;;6.01;100.00
2397;BME280;1209;48.410;9.054;2024-03-06T07:40:41;96436.38;;;6.13;100.00
2397;BME280;1209;48.410;9.054;2024-03-06T07:43:06;96445.91;;;6.12;100.00
2397;BME280;1209;48.410;9.054;2024-03-06T07:45:31;96443.94;;;5.96;100.00
2397;BME280;1209;48.410;9.054;2024-03-06T07:47:57;96445.09;;;6.12;100.00
2397;BME280;1209;48.410;9.054;2024-03-06T07:50:22;96453.91;;;5.91;100.00
2397;BME280;1209;48.410;9.054;2024-03-06T07:52:48;96455.56;;;5.83;100.00
2397;BME280;1209;48.410;9.054;2024-03-06T07:55:13;96451.03;;;5.85;100.00
2397;BME280;1209;48.410;9.054;2024-03-06T07:57:39;96455.38;;;6.04;100.00
2397;BME280;1209;48.410;9.054;2024-03-06T08:00:06;96458.28;;;5.91;100.00
2397;BME280;1209;48.410;9.054;2024-03-06T08:02:42;96459.50;;;5.87;100.00
2397;BME280;1209;48.410;9.054;2024-03-06T08:05:11;96461.41;;;5.94;100.00
2397;BME280;1209;48.410;9.054;2024-03-06T08:07:40;96461.53;;;5.93;100.00
2397;BME280;1209;48.410;9.054;2024-03-06T08:10:10;96470.75;;;6.15;100.00
2397;BME280;1209;48.410;9.054;2024-03-06T08:12:42;96478.41;;;6.16;100.00
2397;BME280;1209;48.410;9.054;2024-03-06T08:15:10;96478.81;;;6.21;100.00
2397;BME280;1209;48.410;9.054;2024-03-06T08:17:37;96484.09;;;6.29;100.00
2397;BME280;1209;48.410;9.054;2024-03-06T08:20:03;96475.25;;;6.22;100.00
2397;BME280;1209;48.410;9.054;2024-03-06T08:22:34;96475.41;;;6.11;100.00
2397;BME280;1209;48.410;9.054;2024-03-06T08:27:29;96462.56;;;6.19;100.00
2397;BME280;1209;48.410;9.054;2024-03-06T08:29:55;96475.38;;;6.21;100.00
2397;BME280;1209;48.410;9.054;2024-03-06T08:32:20;96477.56;;;6.25;100.00
2397;BME280;1209;48.410;9.054;2024-03-06T08:34:45;96473.31;;;6.24;100.00
2397;BME280;1209;48.410;9.054;2024-03-06T08:37:11;96476.75;;;6.25;100.00
2397;BME280;1209;48.410;9.054;2024-03-06T08:39:39;96469.09;;;6.23;100.00
2397;BME280;1209;48.410;9.054;2024-03-06T08:42:04;96469.34;;;6.30;100.00
2397;BME280;1209;48.410;9.054;2024-03-06T08:44:30;96473.97;;;6.36;100.00
2397;BME280;1209;48.410;9.054;2024-03-06T08:46:55;96480.56;;;6.21;100.00
2397;BME280;1209;48.410;9.054;2024-03-06T08:49:20;96484.56;;;6.15;100.00
2397;BME280;1209;48.410;9.054;2024-03-06T08:51:46;96488.88;;;6.24;100.00
2397;BME280;1209;48.410;9.054;2024-03-06T08:54:11;96479.03;;;6.28;100.00
2397;BME280;1209;48.410;9.054;2024-03-06T08:56:36;96481.06;;;6.34;100.00
2397;BME280;1209;48.410;9.054;2024-03-06T08:59:02;96489.69;;;6.25;100.00
2397;BME280;1209;48.410;9.054;2024-03-06T09:01:27;96486.00;;;6.27;100.00
2397;BME280;1209;48.410;9.054;2024-03-06T09:03:53;96497.59;;;6.33;100.00
2397;BME280;1209;48.410;9.054;2024-03-06T09:06:18;96501.66;;;6.36;100.00
2397;BME280;1209;48.410;9.054;2024-03-06T09:08:43;96502.19;;;6.39;100.00
2397;BME280;1209;48.410;9.054;2024-03-06T09:11:09;96498.81;;;6.29;100.00
2397;BME280;1209;48.410;9.054;2024-03-06T09:13:34;96501.31;;;6.11;100.00
2397;BME280;1209;48.410;9.054;2024-03-06T09:15:59;96502.13;;;6.12;100.00
2397;BME280;1209;48.410;9.054;2024-03-06T09:18:25;96506.78;;;6.18;100.00
2397;BME280;1209;48.410;9.054;2024-03-06T09:20:50;96506.50;;;6.21;100.00
2397;BME280;1209;48.410;9.054;2024-03-06T09:23:15;96509.09;;;6.11;100.00
2397;BME280;1209;48.410;9.054;2024-03-06T09:25:41;96503.38;;;6.08;100.00
2397;BME280;1209;48.410;9.054;2024-03-06T09:28:06;96510.47;;;6.06;100.00
2397;BME280;1209;48.410;9.054;2024-03-06T09:30:34;96515.28;;;6.00;100.00
2397;BME280;1209;48.410;9.054;2024-03-06T09:32:59;96519.19;;;6.24;100.00
2397;BME280;1209;48.410;9.054;2024-03-06T09:35:24;96518.97;;;6.45;100.00
2397;BME280;1209;48.410;9.054;2024-03-06T09:37:49;96511.84;;;6.47;100.00
2397;BME280;1209;48.410;9.054;2024-03-06T09:40:22;96511.13;;;6.27;100.00
2397;BME280;1209;48.410;9.054;2024-03-06T09:42:49;96514.75;;;6.44;100.00
2397;BME280;1209;48.410;9.054;2024-03-06T09:45:15;96512.09;;;6.53;100.00
2397;BME280;1209;48.410;9.054;2024-03-06T09:47:42;96509.34;;;6.55;100.00
2397;BME280;1209;48.410;9.054;2024-03-06T09:50:09;96507.91;;;6.43;100.00
2397;BME280;1209;48.410;9.054;2024-03-06T09:52:36;96522.00;;;6.40;100.00
2397;BME280;1209;48.410;9.054;2024-03-06T09:55:01;96517.88;;;6.47;100.00
2397;BME280;1209;48.410;9.054;2024-03-06T09:57:27;96519.53;;;6.39;100.00
2397;BME280;1209;48.410;9.054;2024-03-06T09:59:53;96521.94;;;6.50;100.00
2397;BME280;1209;48.410;9.054;2024-03-06T10:02:31;96521.94;;;6.50;100.00
2397;BME280;1209;48.410;9.054;2024-03-06T10:04:59;96527.41;;;6.47;100.00
2397;BME280;1209;48.410;9.054;2024-03-06T10:07:25;96523.00;;;6.67;100.00
2397;BME280;1209;48.410;9.054;2024-03-06T10:09:52;96523.00;;;6.57;100.00
2397;BME280;1209;48.410;9.054;2024-03-06T10:12:17;96534.19;;;6.67;100.00
2397;BME280;1209;48.410;9.054;2024-03-06T10:14:53;96521.22;;;6.57;100.00
2397;BME280;1209;48.410;9.054;2024-03-06T10:17:22;96532.56;;;6.66;100.00
2397;BME280;1209;48.410;9.054;2024-03-06T10:19:48;96523.00;;;6.57;100.00
2397;BME280;1209;48.410;9.054;2024-03-06T10:22:16;96522.16;;;6.66;100.00
2397;BME280;1209;48.410;9.054;2024-03-06T10:24:42;96527.66;;;6.53;100.00
2397;BME280;1209;48.410;9.054;2024-03-06T10:27:07;96515.59;;;6.62;100.00
2397;BME280;1209;48.410;9.054;2024-03-06T10:29:33;96517.16;;;6.55;100.00
2397;BME280;1209;48.410;9.054;2024-03-06T10:32:00;96524.28;;;6.80;100.00
2397;BME280;1209;48.410;9.054;2024-03-06T10:34:27;96521.31;;;6.75;100.00
2397;BME280;1209;48.410;9.054;2024-03-06T10:36:57;96524.19;;;6.72;100.00
2397;BME280;1209;48.410;9.054;2024-03-06T10:39:23;96524.94;;;6.55;100.00
2397;BME280;1209;48.410;9.054;2024-03-06T10:41:52;96527.94;;;6.50;100.00
2397;BME280;1209;48.410;9.054;2024-03-06T10:44:21;96531.41;;;6.41;100.00
2397;BME280;1209;48.410;9.054;2024-03-06T10:47:06;96522.28;;;6.37;100.00
2397;BME280;1209;48.410;9.054;2024-03-06T10:49:35;96530.69;;;6.49;100.00
2397;BME280;1209;48.410;9.054;2024-03-06T10:52:03;96529.88;;;6.48;100.00
2397;BME280;1209;48.410;9.054;2024-03-06T10:54:32;96538.13;;;6.61;100.00
2397;BME280;1209;48.410;9.054;2024-03-06T10:57:00;96533.72;;;6.44;100.00
2397;BME280;1209;48.410;9.054;2024-03-06T10:59:27;96536.88;;;6.38;100.00
2397;BME280;1209;48.410;9.054;2024-03-06T11:01:56;96532.84;;;6.53;100.00
2397;BME280;1209;48.410;9.054;2024-03-06T11:04:25;96529.97;;;6.56;100.00
2397;BME280;1209;48.410;9.054;2024-03-06T11:06:50;96534.34;;;6.56;100.00
2397;BME280;1209;48.410;9.054;2024-03-06T11:09:16;96536.66;;;6.59;100.00
2397;BME280;1209;48.410;9.054;2024-03-06T11:11:51;96539.53;;;6.66;100.00
2397;BME280;1209;48.410;9.054;2024-03-06T11:14:18;96543.22;;;6.90;100.00
2397;BME280;1209;48.410;9.054;2024-03-06T11:17:02;96545.47;;;7.03;100.00
2397;BME280;1209;48.410;9.054;2024-03-06T11:19:29;96535.63;;;6.79;100.00
2397;BME280;1209;48.410;9.054;2024-03-06T11:21:55;96538.97;;;6.89;100.00
2397;BME280;1209;48.410;9.054;2024-03-06T11:24:22;96541.06;;;6.86;100.00
2397;BME280;1209;48.410;9.054;2024-03-06T11:27:02;96542.34;;;6.72;100.00
2397;BME280;1209;48.410;9.054;2024-03-06T11:30:05;96551.56;;;6.84;100.00
2397;BME280;1209;48.410;9.054;2024-03-06T11:33:00;96550.63;;;6.85;100.00
2397;BME280;1209;48.410;9.054;2024-03-06T11:35:30;96546.81;;;6.80;100.00
2397;BME280;1209;48.410;9.054;2024-03-06T11:37:55;96540.47;;;6.92;100.00
2397;BME280;1209;48.410;9.054;2024-03-06T11:40:24;96547.69;;;6.98;100.00
2397;BME280;1209;48.410;9.054;2024-03-06T11:42:49;96544.75;;;6.83;100.00
2397;BME280;1209;48.410;9.054;2024-03-06T11:45:19;96541.13;;;6.94;100.00
2397;BME280;1209;48.410;9.054;2024-03-06T11:48:00;96548.56;;;7.07;100.00
2397;BME280;1209;48.410;9.054;2024-03-06T11:50:27;96537.72;;;6.93;100.00
2397;BME280;1209;48.410;9.054;2024-03-06T11:52:58;96542.41;;;6.90;100.00
2397;BME280;1209;48.410;9.054;2024-03-06T11:55:24;96539.56;;;6.83;100.00
2397;BME280;1209;48.410;9.054;2024-03-06T11:57:53;96542.41;;;6.90;100.00
2397;BME280;1209;48.410;9.054;2024-03-06T12:00:22;96545.34;;;6.77;100.00
2397;BME280;1209;48.410;9.054;2024-03-06T12:02:48;96538.78;;;7.01;100.00
2397;BME280;1209;48.410;9.054;2024-03-06T12:05:15;96541.19;;;7.12;100.00
2397;BME280;1209;48.410;9.054;2024-03-06T12:07:48;96544.50;;;7.04;100.00
2397;BME280;1209;48.410;9.054;2024-03-06T12:10:13;96541.22;;;7.02;100.00
2397;BME280;1209;48.410;9.054;2024-03-06T12:12:40;96545.50;;;6.93;100.00
2397;BME280;1209;48.410;9.054;2024-03-06T12:15:09;96544.59;;;6.85;100.00
2397;BME280;1209;48.410;9.054;2024-03-06T12:17:43;96543.50;;;6.87;100.00
2397;BME280;1209;48.410;9.054;2024-03-06T12:20:11;96540.72;;;6.71;100.00
2397;BME280;1209;48.410;9.054;2024-03-06T12:22:51;96548.88;;;6.76;100.00
2397;BME280;1209;48.410;9.054;2024-03-06T12:25:20;96553.25;;;6.76;100.00
2397;BME280;1209;48.410;9.054;2024-03-06T12:27:46;96551.38;;;6.68;100.00
2397;BME280;1209;48.410;9.054;2024-03-06T12:30:13;96543.59;;;6.68;100.00
2397;BME280;1209;48.410;9.054;2024-03-06T12:32:42;96547.16;;;6.67;100.00
2397;BME280;1209;48.410;9.054;2024-03-06T12:35:08;96548.13;;;6.66;100.00
2397;BME280;1209;48.410;9.054;2024-03-06T12:37:33;96544.47;;;6.86;100.00
2397;BME280;1209;48.410;9.054;2024-03-06T12:39:58;96547.34;;;6.83;100.00
2397;BME280;1209;48.410;9.054;2024-03-06T12:42:24;96539.34;;;6.94;100.00
2397;BME280;1209;48.410;9.054;2024-03-06T12:44:49;96552.72;;;7.00;100.00
2397;BME280;1209;48.410;9.054;2024-03-06T12:47:15;96546.72;;;6.99;100.00
2397;BME280;1209;48.410;9.054;2024-03-06T12:49:40;96548.44;;;7.08;100.00
2397;BME280;1209;48.410;9.054;2024-03-06T12:52:06;96558.78;;;6.90;100.00
2397;BME280;1209;48.410;9.054;2024-03-06T12:54:31;96558.00;;;7.08;100.00
2397;BME280;1209;48.410;9.054;2024-03-06T12:56:56;96548.41;;;7.18;100.00
2397;BME280;1209;48.410;9.054;2024-03-06T12:59:22;96552.66;;;7.09;100.00
2397;BME280;1209;48.410;9.054;2024-03-06T13:01:47;96550.78;;;7.02;100.00
2397;BME280;1209;48.410;9.054;2024-03-06T13:04:13;96546.91;;;7.15;100.00
2397;BME280;1209;48.410;9.054;2024-03-06T13:06:39;96553.16;;;6.95;100.00
2397;BME280;1209;48.410;9.054;2024-03-06T13:09:06;96550.72;;;6.93;100.00
2397;BME280;1209;48.410;9.054;2024-03-06T13:11:31;96545.06;;;6.98;100.00
2397;BME280;1209;48.410;9.054;2024-03-06T13:13:57;96549.44;;;6.98;100.00
2397;BME280;1209;48.410;9.054;2024-03-06T13:16:23;96540.22;;;7.13;100.00
2397;BME280;1209;48.410;9.054;2024-03-06T13:18:49;96550.03;;;7.19;100.00
2397;BME280;1209;48.410;9.054;2024-03-06T13:21:17;96541.44;;;7.18;100.00